Eddyville, KY

6:59 PM CDT on July 02, 2015 (GMT -0500)
The Ridge Eddycreek | | Change Station
CLOSE
Current Station
Personal Weather Station
Location: Eddyville, KY
Elevation: 471 ft
Nearby Weather Stations

Elev 471 ft 37.02 °N, 88.01 °W | Updated 60 seconds ago

Overcast
Overcast
77.0 °F
Feels Like 78 °F
N
0.0
Wind Variable Wind from SW
Gusts 3.0 mph

Today
High -- | Low -- °F
--% Chance of Precip.
Yesterday
High -- | Low -- °F
Precip. -- in
5:36 AM 8:15 PM
Full, 99% visible
Pressure 29.83 in
Visibility 10.0 miles
Clouds Mostly Cloudy 6000 ft
Overcast 12000 ft
Heat Index 78 °F
Dew Point 77 °F
Humidity 100%
Rainfall 0.02 in
Snow Depth Not available.
UV 0 out of 12
Pollen .60 out of 12
Air Quality Not available.
Flu Activity Not available.
METAR K5M9 022335Z AUTO 35004KT 10SM BKN060 OVC120 26/22 A2983 RMK AO2 T02580220

More Conditions Fewer Conditions

Pressure 29.83 in
Visibility 10.0 miles
Clouds Mostly Cloudy 6000 ft
Overcast 12000 ft
Heat Index 78 °F
Dew Point 77 °F
Humidity 100%
Rainfall 0.02 in
Snow Depth Not available.
UV 0 out of 12
Pollen .60 out of 12
Air Quality Not available.
Flu Activity Not available.
METAR K5M9 022335Z AUTO 35004KT 10SM BKN060 OVC120 26/22 A2983 RMK AO2 T02580220

More Conditions Fewer Conditions

10-Day Weather Forecast

×

Almanac

Astronomy

Jul. 02, 2015 Rise Set
Actual Time
Civil Twilight
Nautical Twilight
Astronomical Twilight
Moon
Length of Visible Light
Length of Day
Tomorrow will be .
, % of the Moon is Illuminated

Today's Extremes

State Highs State Lows

Community

WunderPhotos

Upload Photos

1,834,569 photos uploaded!

WunderBlogs® & News

Nearby

Air Quality

  Air Quality AQ Index Pollutant
Not available.

Snow Depth

Station Depth Elevation

Earthquake Activity

City Distance Mag. Time & Date
Minimum magnitude displayed is 2.5.

Coastal Water Temperatures

Place Temperature

Stations

Nearby Weather Stations

Station Location Temp. Windchill Dew Point Humidity Wind Precip. Elev Updated Type